Time;durP1;ratioP1;P1;durP2;ratioP2;P2;SDS_P1;SDS_P2;PMS_P1;PMS_P2;Temp;Humidity;BMP_temperature;BMP_pressure;BME280_temperature;BME280_humidity;BME280_pressure;Samples;Min_cycle;Max_cycle;Signal;HPM_P1;HPM_P2
2021/05/25 00:01:18;;;;;;;6.30;1.70;;;37.20;8.90;;;;;;5052500;28;20592;-63
2021/05/25 00:03:45;;;;;;;7.03;1.23;;;37.20;9.00;;;;;;5050880;28;20104;-61
2021/05/25 00:06:11;;;;;;;7.18;1.40;;;37.20;9.00;;;;;;5050785;28;20431;-63
2021/05/25 00:08:38;;;;;;;7.25;1.67;;;37.00;9.30;;;;;;5050566;28;20089;-61
2021/05/25 00:11:05;;;;;;;4.88;1.67;;;37.00;9.50;;;;;;5053134;28;20074;-62
2021/05/25 00:13:32;;;;;;;11.43;1.33;;;37.10;9.60;;;;;;5019191;28;20081;-59
2021/05/25 00:15:59;;;;;;;3.58;1.23;;;37.10;9.70;;;;;;5052147;28;20065;-64
2021/05/25 00:18:26;;;;;;;12.63;1.05;;;37.10;9.20;;;;;;5034632;28;20164;-59
2021/05/25 00:20:53;;;;;;;3.67;1.20;;;37.00;9.30;;;;;;5053019;28;20160;-62
2021/05/25 00:23:20;;;;;;;3.03;1.10;;;36.90;9.40;;;;;;5053320;28;20069;-66
2021/05/25 00:25:46;;;;;;;5.93;1.08;;;36.90;9.60;;;;;;5053337;28;20077;-62
2021/05/25 00:28:13;;;;;;;6.03;1.20;;;36.90;9.40;;;;;;5053227;28;20073;-63
2021/05/25 00:30:40;;;;;;;4.63;1.20;;;36.90;9.40;;;;;;5053021;28;20081;-63
2021/05/25 00:33:06;;;;;;;3.55;1.20;;;36.80;9.50;;;;;;5051997;28;20125;-63
2021/05/25 00:35:35;;;;;;;4.75;1.17;;;36.70;9.30;;;;;;5052134;28;20096;-62
2021/05/25 00:38:02;;;;;;;3.72;1.10;;;36.70;9.50;;;;;;5052200;28;20084;-63
2021/05/25 00:40:29;;;;;;;4.38;1.02;;;36.70;9.50;;;;;;5052170;28;20070;-63
2021/05/25 00:42:55;;;;;;;14.23;1.60;;;36.60;9.60;;;;;;5052973;28;20550;-63
2021/05/25 00:45:22;;;;;;;8.18;1.70;;;36.50;9.60;;;;;;5052694;28;20082;-61
2021/05/25 00:47:49;;;;;;;7.10;1.45;;;36.50;9.30;;;;;;5052443;28;20120;-62
2021/05/25 00:50:21;;;;;;;3.85;1.45;;;36.40;9.60;;;;;;5052912;28;20093;-62
2021/05/25 00:52:51;;;;;;;3.97;1.00;;;36.30;9.70;;;;;;5052565;28;20098;-63
2021/05/25 00:55:20;;;;;;;4.82;1.08;;;36.30;9.60;;;;;;5051294;28;20168;-62
2021/05/25 00:57:48;;;;;;;7.30;1.00;;;36.10;9.60;;;;;;5050370;28;20082;-64
2021/05/25 01:00:42;;;;;;;10.02;1.00;;;36.10;9.90;;;;;;5024546;28;20110;-63
2021/05/25 01:03:10;;;;;;;7.00;1.50;;;36.10;9.80;;;;;;5034862;28;20499;-62
2021/05/25 01:05:38;;;;;;;6.75;1.30;;;36.10;9.70;;;;;;5021690;28;20070;-64
2021/05/25 01:08:05;;;;;;;17.13;1.88;;;36.00;9.50;;;;;;5043068;28;20074;-63
2021/05/25 01:10:35;;;;;;;12.00;1.58;;;36.00;9.80;;;;;;5045255;28;20079;-63
2021/05/25 01:13:06;;;;;;;12.10;1.65;;;35.90;9.70;;;;;;5038531;28;20640;-62
2021/05/25 01:15:34;;;;;;;10.43;1.50;;;35.80;9.70;;;;;;5037838;28;20062;-62
2021/05/25 01:18:01;;;;;;;3.90;1.30;;;35.80;9.90;;;;;;5042783;28;20408;-62
2021/05/25 01:20:31;;;;;;;6.10;1.30;;;35.70;9.80;;;;;;5036779;28;20169;-62
2021/05/25 01:22:58;;;;;;;5.38;0.82;;;35.70;9.70;;;;;;5039033;28;20133;-63
2021/05/25 01:25:26;;;;;;;5.78;1.10;;;35.60;9.80;;;;;;5041908;28;20502;-63
2021/05/25 01:28:05;;;;;;;6.13;1.40;;;35.60;9.70;;;;;;5037988;28;20108;-62
2021/05/25 01:30:35;;;;;;;8.75;1.60;;;35.50;9.70;;;;;;5037518;28;20074;-62
2021/05/25 01:33:04;;;;;;;6.32;1.30;;;35.40;10.20;;;;;;5036957;28;20089;-63
2021/05/25 01:35:32;;;;;;;5.65;1.30;;;35.30;9.80;;;;;;5039104;28;20077;-63
2021/05/25 01:38:01;;;;;;;4.75;0.90;;;35.20;10.00;;;;;;5019610;28;20164;-63
2021/05/25 01:40:27;;;;;;;5.60;1.40;;;35.10;9.70;;;;;;5037633;28;20160;-62
2021/05/25 01:42:55;;;;;;;7.18;1.30;;;35.00;9.70;;;;;;5040147;28;20081;-63
2021/05/25 01:45:27;;;;;;;5.28;2.20;;;35.10;9.80;;;;;;5037387;28;20097;-63
2021/05/25 01:47:54;;;;;;;9.20;1.58;;;35.20;9.70;;;;;;5041232;28;20174;-63
2021/05/25 01:50:25;;;;;;;8.30;1.77;;;35.20;9.60;;;;;;5034343;28;20067;-62
2021/05/25 01:52:56;;;;;;;6.93;1.20;;;35.20;9.50;;;;;;5032222;28;20093;-64
2021/05/25 01:55:27;;;;;;;6.15;1.20;;;35.20;9.40;;;;;;5036893;28;20451;-63
2021/05/25 01:57:56;;;;;;;11.13;1.33;;;34.90;9.70;;;;;;5038248;28;20066;-61
2021/05/25 02:00:23;;;;;;;7.18;1.23;;;34.60;9.70;;;;;;5040918;28;20452;-63
2021/05/25 02:02:50;;;;;;;6.38;1.52;;;34.40;9.90;;;;;;5052162;28;20081;-66
2021/05/25 02:05:17;;;;;;;10.15;1.30;;;34.10;9.80;;;;;;5022718;28;20074;-60
2021/05/25 02:07:48;;;;;;;4.75;1.08;;;33.90;9.90;;;;;;5054056;28;20112;-63
2021/05/25 02:10:27;;;;;;;5.70;1.20;;;33.90;9.90;;;;;;5052813;28;20081;-61
2021/05/25 02:12:56;;;;;;;3.30;1.17;;;33.70;10.20;;;;;;5047240;28;20159;-63
2021/05/25 02:15:23;;;;;;;10.13;1.83;;;33.60;10.30;;;;;;5058528;28;20515;-63
2021/05/25 02:17:50;;;;;;;9.68;1.65;;;33.50;10.40;;;;;;5049701;28;20167;-62
2021/05/25 02:20:17;;;;;;;9.77;1.70;;;33.40;10.40;;;;;;5049145;28;20069;-63
2021/05/25 02:22:44;;;;;;;6.97;1.60;;;33.30;10.60;;;;;;5050838;28;20112;-64
2021/05/25 02:25:11;;;;;;;7.05;1.88;;;33.20;10.50;;;;;;5051327;28;20074;-64
2021/05/25 02:27:37;;;;;;;16.38;2.50;;;33.10;10.40;;;;;;5050837;28;20169;-64
2021/05/25 02:30:05;;;;;;;7.00;2.17;;;33.00;10.50;;;;;;5050817;28;20100;-64
2021/05/25 02:32:32;;;;;;;9.48;2.80;;;32.90;10.40;;;;;;5049712;28;21302;-64
2021/05/25 02:34:58;;;;;;;7.30;2.05;;;32.80;10.60;;;;;;5051011;28;20116;-62
2021/05/25 02:37:24;;;;;;;10.25;2.42;;;32.70;10.60;;;;;;5055888;28;20479;-62
2021/05/25 02:39:51;;;;;;;16.27;4.15;;;32.60;10.70;;;;;;5057593;28;20066;-61
2021/05/25 02:42:18;;;;;;;12.13;3.47;;;32.60;10.90;;;;;;5053527;28;20671;-62
2021/05/25 02:44:44;;;;;;;12.82;2.70;;;32.50;11.10;;;;;;5054173;28;20118;-61
2021/05/25 02:47:11;;;;;;;23.20;9.45;;;32.40;11.40;;;;;;5054024;28;20078;-65
2021/05/25 02:49:37;;;;;;;22.35;9.85;;;32.30;11.80;;;;;;5035422;28;20537;-60
2021/05/25 02:52:04;;;;;;;39.42;11.55;;;32.20;11.10;;;;;;5053694;28;20451;-60
2021/05/25 02:54:30;;;;;;;27.23;10.10;;;32.20;11.20;;;;;;5019813;28;20534;-60
2021/05/25 02:56:57;;;;;;;16.92;5.80;;;32.10;11.70;;;;;;5054090;28;20533;-58
2021/05/25 02:59:24;;;;;;;12.02;2.85;;;32.00;11.60;;;;;;5052626;28;20499;-61
2021/05/25 03:01:50;;;;;;;13.60;2.50;;;31.90;11.60;;;;;;5048435;28;20081;-61
2021/05/25 03:04:16;;;;;;;12.82;2.42;;;31.80;12.40;;;;;;5050476;28;20638;-61
2021/05/25 03:06:43;;;;;;;17.77;2.72;;;31.70;12.70;;;;;;5041496;28;20082;-59
2021/05/25 03:09:09;;;;;;;16.23;2.60;;;31.60;13.20;;;;;;5049659;28;20062;-61
2021/05/25 03:11:36;;;;;;;13.35;2.33;;;31.50;13.70;;;;;;5038552;28;20579;-59
2021/05/25 03:14:03;;;;;;;10.75;1.65;;;31.40;13.90;;;;;;5048850;28;20091;-63
2021/05/25 03:16:30;;;;;;;10.25;2.03;;;31.20;14.20;;;;;;5050325;28;20493;-60
2021/05/25 03:18:56;;;;;;;21.20;2.50;;;31.10;14.70;;;;;;5048161;28;20070;-61
2021/05/25 03:21:23;;;;;;;19.05;2.22;;;31.00;14.70;;;;;;5043789;28;20123;-59
2021/05/25 03:23:49;;;;;;;16.85;2.20;;;30.80;14.50;;;;;;5051013;28;20074;-58
2021/05/25 03:26:16;;;;;;;18.92;2.30;;;30.80;14.80;;;;;;5049963;28;20089;-57
2021/05/25 03:28:43;;;;;;;15.18;2.22;;;30.70;14.90;;;;;;5039435;28;20442;-59
2021/05/25 03:31:09;;;;;;;13.32;2.20;;;30.50;15.00;;;;;;5039392;28;20073;-61
2021/05/25 03:33:36;;;;;;;16.85;2.72;;;30.40;14.50;;;;;;5041298;28;20066;-61
2021/05/25 03:36:03;;;;;;;17.73;2.47;;;30.30;14.60;;;;;;5049040;28;20080;-60
2021/05/25 03:38:29;;;;;;;14.02;2.20;;;30.20;14.60;;;;;;5048321;28;20070;-60
2021/05/25 03:40:56;;;;;;;10.70;2.45;;;30.10;15.00;;;;;;5048826;28;20754;-60
2021/05/25 03:43:23;;;;;;;14.73;2.35;;;30.00;14.80;;;;;;5050027;28;20427;-61
2021/05/25 03:45:49;;;;;;;11.82;2.40;;;30.00;15.10;;;;;;5051299;28;20106;-59
2021/05/25 03:48:17;;;;;;;19.58;4.82;;;29.90;15.60;;;;;;5044958;28;20501;-59
2021/05/25 03:50:44;;;;;;;25.70;5.63;;;29.80;15.70;;;;;;5049906;28;20078;-59
2021/05/25 03:53:11;;;;;;;29.55;4.95;;;29.70;15.80;;;;;;5041811;28;20553;-57
2021/05/25 04:01:01;;;;;;;35.50;4.72;;;29.50;16.00;;;;;;5047498;28;20179;-60
2021/05/25 04:03:28;;;;;;;26.55;4.65;;;29.40;15.80;;;;;;5049762;28;20065;-60
2021/05/25 04:05:55;;;;;;;24.67;4.90;;;29.40;15.90;;;;;;5042369;28;20168;-58
2021/05/25 04:08:21;;;;;;;28.17;5.15;;;29.30;16.00;;;;;;5050478;28;20077;-57
2021/05/25 04:10:49;;;;;;;39.88;5.45;;;29.20;16.10;;;;;;5050258;28;20096;-58
2021/05/25 04:13:17;;;;;;;41.58;6.18;;;29.10;16.30;;;;;;5048657;28;20101;-60
2021/05/25 04:15:50;;;;;;;30.20;5.47;;;29.00;16.20;;;;;;5049986;28;20084;-59
2021/05/25 04:18:17;;;;;;;29.15;6.15;;;29.00;16.20;;;;;;5047587;28;20066;-60
2021/05/25 04:20:44;;;;;;;42.92;6.15;;;28.90;16.10;;;;;;5050021;28;20123;-60
2021/05/25 04:23:10;;;;;;;37.90;7.00;;;28.80;16.40;;;;;;5048913;28;20066;-59
2021/05/25 04:25:37;;;;;;;38.35;7.25;;;28.80;16.50;;;;;;5049302;28;20483;-60
2021/05/25 04:28:04;;;;;;;41.38;7.22;;;28.80;16.70;;;;;;5047740;28;20435;-60
2021/05/25 04:30:31;;;;;;;35.38;6.88;;;28.70;16.70;;;;;;5049041;28;20089;-60
2021/05/25 04:32:57;;;;;;;43.30;7.75;;;28.60;16.80;;;;;;5049183;28;20180;-59
2021/05/25 04:35:24;;;;;;;36.38;7.65;;;28.60;16.80;;;;;;5042214;28;20101;-61
2021/05/25 04:37:55;;;;;;;56.03;8.25;;;28.60;17.20;;;;;;5052076;28;20069;-60
2021/05/25 04:40:22;;;;;;;64.75;9.10;;;28.50;17.70;;;;;;5039049;28;20436;-61
2021/05/25 04:42:49;;;;;;;64.82;9.75;;;28.40;17.70;;;;;;5049307;28;20528;-60
2021/05/25 04:45:17;;;;;;;39.58;8.75;;;28.30;17.60;;;;;;5041657;28;20100;-59
2021/05/25 04:47:44;;;;;;;52.40;9.20;;;28.30;17.60;;;;;;5049912;28;20119;-61
2021/05/25 04:50:12;;;;;;;65.05;10.48;;;28.30;17.90;;;;;;5048447;28;20439;-59
2021/05/25 04:52:39;;;;;;;90.10;12.32;;;28.20;18.20;;;;;;5049509;28;20180;-63
2021/05/25 04:55:09;;;;;;;58.80;11.35;;;28.10;18.30;;;;;;5049417;28;20081;-60
2021/05/25 04:57:36;;;;;;;51.90;10.40;;;28.10;18.10;;;;;;5041217;28;20077;-58
2021/05/25 05:00:05;;;;;;;83.18;11.02;;;28.10;17.60;;;;;;5048137;28;20114;-60
2021/05/25 05:02:31;;;;;;;61.47;11.43;;;28.00;18.40;;;;;;5069230;28;20081;-59
2021/05/25 05:04:58;;;;;;;62.22;12.15;;;28.00;18.30;;;;;;5064320;28;20073;-59
2021/05/25 05:07:24;;;;;;;62.88;10.57;;;27.90;18.60;;;;;;5059671;28;20108;-60
2021/05/25 05:09:51;;;;;;;121.85;15.52;;;27.90;18.60;;;;;;5059214;28;20069;-60
2021/05/25 05:12:17;;;;;;;87.53;13.55;;;27.90;18.60;;;;;;5051144;28;20139;-61
2021/05/25 05:14:44;;;;;;;54.67;9.98;;;27.80;18.80;;;;;;5062670;28;20069;-62
2021/05/25 05:17:11;;;;;;;71.93;10.15;;;27.80;19.20;;;;;;5048160;28;20070;-61
2021/05/25 05:19:37;;;;;;;51.08;10.38;;;27.70;19.50;;;;;;5040477;28;20066;-61
2021/05/25 05:22:04;;;;;;;67.47;11.05;;;27.60;19.40;;;;;;5061684;28;20130;-61
2021/05/25 05:24:30;;;;;;;55.88;10.73;;;27.70;19.40;;;;;;5053730;28;20427;-61
2021/05/25 05:26:57;;;;;;;82.82;11.65;;;27.60;19.50;;;;;;5056387;28;20168;-62
2021/05/25 05:29:23;;;;;;;66.43;10.68;;;27.60;19.60;;;;;;5052376;28;20074;-62
2021/05/25 05:31:50;;;;;;;58.20;10.80;;;27.50;19.20;;;;;;5053047;28;20548;-62
2021/05/25 05:34:16;;;;;;;47.95;9.93;;;27.40;19.40;;;;;;5049787;28;20577;-62
2021/05/25 05:36:43;;;;;;;53.88;9.90;;;27.40;19.20;;;;;;5049495;28;20081;-63
2021/05/25 05:39:10;;;;;;;51.22;11.27;;;27.30;18.90;;;;;;5043395;28;20070;-64
2021/05/25 05:41:36;;;;;;;48.95;10.70;;;27.30;19.00;;;;;;5055780;28;20103;-62
2021/05/25 05:44:03;;;;;;;44.83;10.70;;;27.20;19.10;;;;;;5060089;28;20088;-61
2021/05/25 05:46:30;;;;;;;65.72;11.23;;;27.20;19.30;;;;;;5047709;28;20077;-61
2021/05/25 05:48:56;;;;;;;61.38;10.60;;;27.10;19.60;;;;;;5042104;28;20080;-61
2021/05/25 05:51:23;;;;;;;59.63;10.88;;;27.10;19.60;;;;;;5056234;28;20113;-62
2021/05/25 05:53:50;;;;;;;75.40;11.75;;;27.10;19.90;;;;;;5055585;28;20103;-61
2021/05/25 05:56:18;;;;;;;49.63;9.60;;;27.00;20.30;;;;;;5054235;28;20073;-61
2021/05/25 05:58:46;;;;;;;65.47;11.30;;;27.00;20.40;;;;;;5056198;28;20134;-58
2021/05/25 06:01:13;;;;;;;53.33;10.35;;;26.90;20.20;;;;;;5027208;28;20110;-60
2021/05/25 06:03:40;;;;;;;44.78;8.98;;;26.90;20.00;;;;;;5025588;28;21480;-61
2021/05/25 06:06:08;;;;;;;62.08;10.93;;;26.90;20.20;;;;;;5031714;28;20396;-59
2021/05/25 06:08:34;;;;;;;48.42;10.13;;;26.80;20.20;;;;;;5009749;28;20082;-59
2021/05/25 06:11:01;;;;;;;55.72;11.00;;;26.80;20.50;;;;;;5031134;28;20438;-61
2021/05/25 06:13:27;;;;;;;63.60;10.10;;;26.70;20.70;;;;;;5031531;28;20093;-59
2021/05/25 06:15:57;;;;;;;49.53;11.32;;;26.70;20.70;;;;;;5031768;28;20145;-61
2021/05/25 06:18:24;;;;;;;54.75;11.10;;;26.60;20.20;;;;;;5031940;28;20132;-60
2021/05/25 06:20:50;;;;;;;60.40;11.63;;;26.60;20.60;;;;;;5031218;28;20078;-59
2021/05/25 06:23:17;;;;;;;59.63;11.35;;;26.60;20.70;;;;;;5029915;28;20066;-60
2021/05/25 06:25:44;;;;;;;61.70;11.23;;;26.60;20.80;;;;;;5031293;28;20070;-59
2021/05/25 06:28:10;;;;;;;75.50;12.73;;;26.50;20.80;;;;;;5031480;28;20145;-61
2021/05/25 06:30:37;;;;;;;71.40;12.65;;;26.40;20.90;;;;;;5031324;28;20070;-60
2021/05/25 06:33:05;;;;;;;62.75;11.60;;;26.30;21.60;;;;;;5031092;28;20094;-61
2021/05/25 06:35:32;;;;;;;55.35;11.98;;;26.30;21.60;;;;;;5030973;28;20070;-60
2021/05/25 06:37:59;;;;;;;58.53;11.15;;;26.30;21.30;;;;;;5031260;28;20079;-59
2021/05/25 06:40:26;;;;;;;62.78;12.30;;;26.20;21.10;;;;;;5031346;28;20105;-61
2021/05/25 06:42:53;;;;;;;76.78;14.60;;;26.20;20.80;;;;;;5030734;28;20086;-61
2021/05/25 06:45:21;;;;;;;80.13;14.07;;;26.20;20.50;;;;;;5031315;28;20074;-62
2021/05/25 06:47:49;;;;;;;59.08;11.27;;;26.20;20.10;;;;;;5030996;28;20081;-60
2021/05/25 06:50:17;;;;;;;56.67;10.88;;;26.20;19.60;;;;;;5030972;28;20124;-65
2021/05/25 06:52:44;;;;;;;58.95;9.45;;;26.20;19.50;;;;;;5031145;28;20114;-61
2021/05/25 06:55:12;;;;;;;38.95;8.32;;;26.20;19.30;;;;;;5030886;28;20595;-61
2021/05/25 06:57:39;;;;;;;60.13;8.57;;;26.20;19.40;;;;;;5013473;28;20082;-60
2021/05/25 07:00:09;;;;;;;47.85;7.63;;;26.20;19.70;;;;;;5030100;28;20113;-61
2021/05/25 07:02:38;;;;;;;41.92;7.82;;;26.20;19.70;;;;;;5017394;28;20085;-60
2021/05/25 07:05:06;;;;;;;30.23;6.68;;;26.20;19.80;;;;;;5018945;28;20768;-59
2021/05/25 07:07:33;;;;;;;47.58;6.97;;;26.10;19.80;;;;;;5021912;28;20070;-59
2021/05/25 07:10:00;;;;;;;34.17;6.72;;;26.10;19.90;;;;;;5017071;28;20575;-60
2021/05/25 07:12:27;;;;;;;19.75;4.80;;;26.10;19.80;;;;;;5021735;28;20193;-60
2021/05/25 07:14:53;;;;;;;25.83;4.78;;;26.10;19.80;;;;;;5017150;28;20456;-59
2021/05/25 07:17:20;;;;;;;22.95;4.47;;;26.10;19.80;;;;;;5024360;28;20081;-58
2021/05/25 07:19:48;;;;;;;30.05;4.10;;;26.10;19.90;;;;;;5028072;28;20160;-59
2021/05/25 07:22:16;;;;;;;16.77;3.22;;;26.10;19.90;;;;;;5023116;28;20101;-59
2021/05/25 07:24:44;;;;;;;15.73;3.33;;;26.20;20.10;;;;;;5019652;28;20412;-59
2021/05/25 07:27:10;;;;;;;21.50;3.97;;;26.20;20.30;;;;;;5025060;28;20488;-59
2021/05/25 07:29:37;;;;;;;17.33;4.50;;;26.20;20.20;;;;;;5017234;28;20102;-60
2021/05/25 07:32:04;;;;;;;17.75;4.68;;;26.20;20.30;;;;;;5018654;28;20108;-62
2021/05/25 07:34:31;;;;;;;14.40;4.75;;;26.20;20.40;;;;;;5028888;28;20132;-62
2021/05/25 07:36:57;;;;;;;11.60;3.83;;;26.20;20.40;;;;;;5022580;28;20086;-60
2021/05/25 07:39:24;;;;;;;13.80;3.85;;;26.10;20.40;;;;;;5024022;28;20085;-59
2021/05/25 07:41:50;;;;;;;13.40;3.60;;;26.10;20.50;;;;;;5031270;28;20078;-62
2021/05/25 07:44:18;;;;;;;15.48;3.10;;;26.10;20.60;;;;;;5008106;28;20090;-61
2021/05/25 07:46:45;;;;;;;23.48;3.60;;;26.10;20.70;;;;;;5023054;28;20523;-61
2021/05/25 07:49:11;;;;;;;8.55;2.65;;;26.10;20.70;;;;;;5017200;28;20106;-62
2021/05/25 07:51:38;;;;;;;16.42;2.90;;;26.00;20.80;;;;;;5019725;28;20495;-62
2021/05/25 07:54:05;;;;;;;13.02;2.53;;;26.00;21.00;;;;;;5023185;28;20074;-63
2021/05/25 07:56:32;;;;;;;10.15;2.17;;;26.00;20.70;;;;;;5019306;28;20089;-60
2021/05/25 07:58:59;;;;;;;7.65;2.47;;;26.10;20.70;;;;;;5024703;28;20217;-62
2021/05/25 08:01:25;;;;;;;17.77;2.17;;;26.10;20.80;;;;;;5032763;28;20122;-61
2021/05/25 08:03:52;;;;;;;10.35;2.45;;;26.10;20.80;;;;;;5032966;28;20164;-60
2021/05/25 08:06:19;;;;;;;12.02;2.33;;;26.10;20.80;;;;;;5030837;28;20124;-63
2021/05/25 08:08:45;;;;;;;13.30;2.20;;;26.10;20.70;;;;;;5032960;28;20074;-63
2021/05/25 08:11:13;;;;;;;18.52;3.22;;;26.20;20.70;;;;;;5033039;28;20101;-62
2021/05/25 08:13:41;;;;;;;8.57;2.30;;;26.20;20.60;;;;;;5032762;28;20157;-62
2021/05/25 08:16:10;;;;;;;10.32;2.17;;;26.20;20.90;;;;;;5032084;28;20445;-62
2021/05/25 08:21:10;;;;;;;13.15;2.25;;;26.20;20.90;;;;;;5032896;28;20117;-62
2021/05/25 08:23:38;;;;;;;10.45;2.08;;;26.10;21.10;;;;;;5032488;28;20443;-60
2021/05/25 08:26:05;;;;;;;8.98;2.15;;;26.10;21.00;;;;;;5033678;28;20097;-62
2021/05/25 08:28:32;;;;;;;11.27;2.20;;;26.00;21.10;;;;;;5014977;28;20103;-61
2021/05/25 08:30:58;;;;;;;10.38;2.17;;;26.00;21.30;;;;;;5031412;28;20157;-62
2021/05/25 08:33:26;;;;;;;10.85;2.50;;;25.90;21.20;;;;;;5031849;28;20440;-61
2021/05/25 08:35:52;;;;;;;7.30;1.88;;;25.90;21.20;;;;;;5032705;28;20106;-61
2021/05/25 08:38:21;;;;;;;7.45;1.88;;;26.00;21.40;;;;;;5031244;28;20102;-61
2021/05/25 08:40:53;;;;;;;8.70;1.75;;;25.90;21.70;;;;;;5032427;28;20132;-60
2021/05/25 08:43:21;;;;;;;11.52;2.75;;;25.90;22.10;;;;;;5031844;28;20082;-61
2021/05/25 08:45:48;;;;;;;7.25;1.98;;;25.80;22.30;;;;;;5032554;28;20151;-62
2021/05/25 08:48:15;;;;;;;11.00;2.10;;;25.70;22.00;;;;;;5031975;28;20081;-61
2021/05/25 08:50:41;;;;;;;14.73;2.22;;;25.70;21.90;;;;;;5031945;28;20439;-61
2021/05/25 08:53:08;;;;;;;12.52;2.47;;;25.70;22.10;;;;;;5031664;28;20090;-61
2021/05/25 08:55:36;;;;;;;13.27;2.05;;;25.60;22.10;;;;;;5032235;28;20858;-58
2021/05/25 08:58:05;;;;;;;12.75;2.38;;;25.60;22.20;;;;;;5031888;28;20085;-59
2021/05/25 09:00:33;;;;;;;17.00;2.15;;;25.50;22.40;;;;;;5027692;28;20163;-61
2021/05/25 09:03:00;;;;;;;18.33;2.03;;;25.50;22.40;;;;;;5012771;28;20075;-61
2021/05/25 09:05:27;;;;;;;13.30;2.65;;;25.50;22.40;;;;;;5020681;28;20132;-59
2021/05/25 09:08:00;;;;;;;21.90;2.55;;;25.50;22.90;;;;;;5015383;28;20482;-61
2021/05/25 09:10:42;;;;;;;15.10;2.47;;;25.40;23.10;;;;;;5017249;28;20106;-61
2021/05/25 09:13:21;;;;;;;12.02;2.22;;;25.40;23.00;;;;;;5023225;28;20547;-61
2021/05/25 09:15:53;;;;;;;13.18;2.40;;;25.30;22.80;;;;;;5025395;28;20069;-61
2021/05/25 09:18:26;;;;;;;9.05;2.45;;;25.30;23.60;;;;;;5018300;28;20093;-61
2021/05/25 09:21:02;;;;;;;21.20;2.58;;;25.20;23.60;;;;;;5025032;28;20416;-62
2021/05/25 09:23:35;;;;;;;19.90;1.98;;;25.10;23.50;;;;;;5024609;28;20413;-62
2021/05/25 09:26:10;;;;;;;11.32;2.35;;;25.10;23.40;;;;;;5019838;28;20081;-60
2021/05/25 09:28:57;;;;;;;13.32;1.98;;;25.00;23.40;;;;;;5018516;28;20169;-61
2021/05/25 09:31:48;;;;;;;14.20;2.20;;;24.90;24.30;;;;;;5021045;28;20124;-61
2021/05/25 09:34:22;;;;;;;10.00;2.28;;;24.90;24.20;;;;;;5023715;28;20074;-61
2021/05/25 09:37:03;;;;;;;16.05;2.42;;;24.80;23.80;;;;;;5021282;28;20065;-62
2021/05/25 09:39:41;;;;;;;13.55;2.58;;;24.80;24.00;;;;;;5024144;28;20088;-61
2021/05/25 09:42:14;;;;;;;16.38;2.30;;;24.80;24.40;;;;;;5018798;28;20117;-61
2021/05/25 09:45:00;;;;;;;17.35;2.40;;;24.70;24.70;;;;;;5024301;28;20109;-62
2021/05/25 09:47:44;;;;;;;15.53;2.00;;;24.70;24.60;;;;;;5029764;28;20085;-61
2021/05/25 09:50:16;;;;;;;9.85;2.47;;;24.70;24.70;;;;;;5016086;28;20319;-61
2021/05/25 09:53:11;;;;;;;11.38;1.90;;;24.60;24.80;;;;;;5019613;28;20173;-62
2021/05/25 09:55:57;;;;;;;16.58;2.25;;;24.60;24.80;;;;;;5015150;28;20090;-61
2021/05/25 09:58:34;;;;;;;14.43;2.42;;;24.60;24.70;;;;;;5021537;28;20082;-60
2021/05/25 10:01:05;;;;;;;16.38;2.67;;;24.60;24.60;;;;;;5050132;28;20605;-61
2021/05/25 10:03:35;;;;;;;9.40;1.92;;;24.50;25.00;;;;;;5060037;28;20082;-61
2021/05/25 10:06:02;;;;;;;9.55;2.67;;;24.40;25.30;;;;;;5049494;28;20073;-60
2021/05/25 10:08:29;;;;;;;9.25;2.50;;;24.30;25.30;;;;;;5044087;28;20081;-61
2021/05/25 10:10:58;;;;;;;10.52;2.35;;;24.30;25.40;;;;;;5048571;28;20598;-61
2021/05/25 10:13:31;;;;;;;10.43;2.10;;;24.30;25.50;;;;;;5053461;28;20538;-62
2021/05/25 10:15:58;;;;;;;15.25;3.03;;;24.30;25.70;;;;;;5054065;28;20550;-61
2021/05/25 10:21:13;;;;;;;8.88;2.35;;;24.20;25.70;;;;;;5048631;28;20088;-61
2021/05/25 10:23:42;;;;;;;11.93;2.40;;;24.20;26.30;;;;;;5058323;28;20077;-61
2021/05/25 10:26:20;;;;;;;9.88;2.28;;;24.10;26.20;;;;;;5047135;28;20100;-62
2021/05/25 10:28:49;;;;;;;11.73;2.47;;;24.00;26.30;;;;;;5058471;28;20112;-62
2021/05/25 10:31:28;;;;;;;7.65;1.92;;;24.00;26.30;;;;;;5063573;28;20146;-61
2021/05/25 10:34:14;;;;;;;9.50;2.47;;;24.00;25.80;;;;;;5051315;28;20097;-61
2021/05/25 10:36:49;;;;;;;7.50;2.20;;;23.90;26.40;;;;;;5051508;28;20112;-60
2021/05/25 10:39:34;;;;;;;9.85;2.38;;;23.80;26.50;;;;;;5057027;28;20160;-61
2021/05/25 10:42:23;;;;;;;19.02;2.80;;;23.80;26.50;;;;;;5047377;28;20412;-62
2021/05/25 10:44:51;;;;;;;12.15;2.60;;;23.80;26.40;;;;;;5041468;28;20479;-62
2021/05/25 10:47:22;;;;;;;14.07;2.22;;;23.80;26.30;;;;;;5060981;28;20065;-62
2021/05/25 10:50:25;;;;;;;15.20;2.47;;;23.70;26.50;;;;;;5054734;28;20089;-63
2021/05/25 10:52:55;;;;;;;16.00;2.42;;;23.70;26.50;;;;;;5049717;28;20470;-62
2021/05/25 10:55:45;;;;;;;11.63;1.92;;;23.60;26.50;;;;;;5057875;28;20538;-62
2021/05/25 10:58:18;;;;;;;20.83;2.72;;;23.60;26.60;;;;;;5056426;28;20103;-62
2021/05/25 11:00:45;;;;;;;9.05;2.22;;;23.50;26.80;;;;;;5049196;28;20120;-62
2021/05/25 11:03:11;;;;;;;11.57;2.35;;;23.50;26.60;;;;;;5063958;28;20509;-61
2021/05/25 11:05:55;;;;;;;10.35;2.13;;;23.50;26.60;;;;;;5062633;28;20086;-63
2021/05/25 11:08:25;;;;;;;14.40;2.33;;;23.50;26.90;;;;;;5059342;28;20118;-62
2021/05/25 11:10:59;;;;;;;13.65;2.58;;;23.40;26.80;;;;;;5065596;28;20156;-61
2021/05/25 11:13:30;;;;;;;11.05;2.42;;;23.50;26.70;;;;;;5062271;28;20116;-62
2021/05/25 11:16:16;;;;;;;13.98;2.00;;;23.50;26.70;;;;;;5059579;28;20134;-62
2021/05/25 11:24:33;;;;;;;12.38;2.05;;;23.40;25.70;;;;;;5063093;28;20168;-62
2021/05/25 11:27:04;;;;;;;10.23;2.10;;;23.40;25.40;;;;;;5060224;28;20108;-62
2021/05/25 11:29:35;;;;;;;13.77;2.25;;;23.50;26.00;;;;;;5060935;28;20061;-63
2021/05/25 11:32:15;;;;;;;14.70;2.50;;;23.50;25.80;;;;;;5064430;28;20089;-62
2021/05/25 11:34:42;;;;;;;6.22;2.08;;;23.50;26.30;;;;;;5063809;28;20156;-62
2021/05/25 11:37:19;;;;;;;15.05;2.40;;;23.50;26.30;;;;;;5061925;28;20155;-62
2021/05/25 11:39:47;;;;;;;12.00;2.35;;;23.40;26.60;;;;;;5059402;28;20126;-61
2021/05/25 11:42:14;;;;;;;12.32;2.55;;;23.40;26.90;;;;;;5041177;28;20173;-61
2021/05/25 11:44:45;;;;;;;12.73;2.63;;;23.40;27.00;;;;;;5057483;28;20629;-63
2021/05/25 11:47:14;;;;;;;13.18;2.70;;;23.30;27.40;;;;;;5061911;28;20065;-62
2021/05/25 11:49:44;;;;;;;24.80;2.80;;;23.30;27.30;;;;;;5063024;28;20081;-62
2021/05/25 11:52:21;;;;;;;25.27;2.42;;;23.30;27.20;;;;;;5063331;28;20542;-62
2021/05/25 11:54:48;;;;;;;49.65;4.22;;;23.20;27.00;;;;;;5059526;28;20108;-64
2021/05/25 11:57:42;;;;;;;45.78;3.63;;;23.20;27.40;;;;;;5061018;28;20164;-61
2021/05/25 12:00:14;;;;;;;50.70;4.00;;;23.20;27.30;;;;;;5052653;28;20139;-62
2021/05/25 12:02:45;;;;;;;27.33;3.25;;;23.10;27.10;;;;;;5062788;28;20081;-61
2021/05/25 12:05:15;;;;;;;42.55;3.90;;;23.10;28.20;;;;;;5061864;28;20107;-61
2021/05/25 12:07:44;;;;;;;26.65;3.35;;;23.10;27.70;;;;;;5061731;28;20084;-61
2021/05/25 12:10:14;;;;;;;28.83;3.88;;;23.10;28.10;;;;;;5060580;28;20415;-61
2021/05/25 12:12:43;;;;;;;30.80;3.40;;;23.00;28.10;;;;;;5056539;28;20101;-61
2021/05/25 12:15:16;;;;;;;18.30;2.92;;;23.00;28.00;;;;;;5059950;28;20519;-62
2021/05/25 12:17:45;;;;;;;15.32;3.22;;;22.90;27.50;;;;;;5061223;28;20108;-61
2021/05/25 12:20:17;;;;;;;21.05;3.20;;;22.90;27.10;;;;;;5060122;28;20101;-61
2021/05/25 12:22:49;;;;;;;16.67;3.55;;;22.90;27.80;;;;;;5059315;28;20555;-60
2021/05/25 12:25:27;;;;;;;21.98;3.22;;;23.00;27.20;;;;;;5062017;28;20105;-60
2021/05/25 12:28:15;;;;;;;21.80;3.65;;;23.00;26.40;;;;;;5063886;28;20077;-61
2021/05/25 12:30:47;;;;;;;14.35;2.70;;;23.00;26.00;;;;;;5061334;28;20073;-60
2021/05/25 12:33:26;;;;;;;14.52;2.70;;;23.10;25.50;;;;;;5058978;28;20109;-61
2021/05/25 12:36:10;;;;;;;16.48;2.92;;;23.10;25.30;;;;;;5059898;28;20073;-60
2021/05/25 12:38:37;;;;;;;8.55;2.22;;;23.10;25.60;;;;;;5063684;28;20073;-62
2021/05/25 12:41:03;;;;;;;15.75;3.00;;;23.20;25.50;;;;;;5060039;28;20076;-62
2021/05/25 12:43:33;;;;;;;13.50;2.30;;;23.20;24.60;;;;;;5060699;28;20074;-61
2021/05/25 12:46:08;;;;;;;11.48;2.50;;;23.20;24.90;;;;;;5058807;28;20085;-60
2021/05/25 12:48:40;;;;;;;16.33;2.55;;;23.30;25.20;;;;;;5061743;28;20065;-60
2021/05/25 12:51:08;;;;;;;11.75;2.55;;;23.30;25.60;;;;;;5061616;28;20073;-61
2021/05/25 12:53:59;;;;;;;11.95;2.80;;;23.30;25.70;;;;;;5060947;28;20176;-60
2021/05/25 12:56:28;;;;;;;18.08;3.10;;;23.30;25.90;;;;;;5062322;28;20085;-60
2021/05/25 12:58:55;;;;;;;11.63;2.30;;;23.20;26.50;;;;;;5062230;28;20176;-60
2021/05/25 13:01:43;;;;;;;24.98;3.22;;;23.20;26.60;;;;;;5050835;28;20121;-61
2021/05/25 13:04:09;;;;;;;20.45;2.40;;;23.20;27.30;;;;;;5034207;28;20074;-61
2021/05/25 13:09:21;;;;;;;14.70;3.15;;;23.10;27.70;;;;;;5051396;28;20156;-60